Ana Sayfa
METAR-TAF:

METAR-TAF

Havaalanları :

Gainesville Municipal Airport

Gainesville, Teksas, Amerika Birleşik Devletleri

Enlem: 33-39-05N, Boylam: 097-11-49W, yükseklik: 256 m

Güncel hava durumu gözlemi

Rapor saat 19:55 UTC de 17 dakika önce yapıldı.
Rüzgar kuzeydan 11 kt ve 21 kt'a kadar ani rüzgarlar
Sıcaklık 11°C
Nem 40%
Basınç 1028 hPa
Görüş mesafesi: 16.1 km
Açık gökyüzü

METAR: KGLE 181955Z AUTO 01011G21KT 10SM CLR 11/M02 A3036 RMK AO2 T01081025 PWINO

Saat: 14:12 (20:12 UTC)


TAF: eksik

4.000'den fazla havaalanı için hava durumu gözlemleri ve tahminleri (METAR ve TAF raporları).

Kullanılabilir istasyonlar harita üzerinde sarı ve kırmızı noktalarla gösterilir.

İstasyonun adını görmek için fareyi noktanın üzerinde gezdirin.

Sonrasında hava gözlem ve tahminlerini görmek için tıklayın.

Haritayı değiştirmek için: yaklaştırmak için siyah artı işaretli yeşil düğmeye ve uzaklaştırmak için de eksi işaretli düğmeye hızla tıklayın; bitişik haritalar için yeşil okları kullanın.


METAR-TAF: